createdAt,value
2022-12-31T00:01:23.897Z,9.90
2022-12-31T00:03:52.575Z,7.70
2022-12-31T00:06:26.736Z,8.38
2022-12-31T00:08:56.745Z,8.25
2022-12-31T00:11:26.379Z,7.70
2022-12-31T00:13:55.296Z,9.85
2022-12-31T00:16:25.837Z,8.73
2022-12-31T00:18:59.153Z,8.25
2022-12-31T00:21:30.477Z,8.63
2022-12-31T00:23:59.161Z,8.70
2022-12-31T00:26:30.669Z,12.80
2022-12-31T00:29:00.832Z,11.68
2022-12-31T00:31:31.447Z,8.05
2022-12-31T00:34:00.554Z,8.68
2022-12-31T00:36:32.651Z,9.70
2022-12-31T00:39:02.846Z,8.93
2022-12-31T00:41:31.562Z,8.20
2022-12-31T00:44:00.588Z,8.05
2022-12-31T00:46:28.991Z,5.53
2022-12-31T00:48:57.460Z,7.55
2022-12-31T00:51:27.580Z,8.43
2022-12-31T00:53:58.471Z,8.68
2022-12-31T00:56:29.218Z,7.45
2022-12-31T00:58:58.150Z,8.45
2022-12-31T01:01:29.305Z,8.45
2022-12-31T01:04:00.974Z,7.65
2022-12-31T01:06:29.382Z,7.57
2022-12-31T01:08:59.404Z,6.00
2022-12-31T01:11:30.032Z,6.55
2022-12-31T01:14:00.268Z,6.05
2022-12-31T01:16:32.271Z,6.68
2022-12-31T01:19:01.774Z,7.28
2022-12-31T01:21:30.779Z,6.18
2022-12-31T01:24:01.147Z,6.30
2022-12-31T01:26:30.029Z,4.00
2022-12-31T01:28:58.408Z,6.80
2022-12-31T01:31:27.138Z,5.85
2022-12-31T01:33:55.598Z,5.90
2022-12-31T01:36:26.724Z,4.65
2022-12-31T01:38:55.814Z,4.70
2022-12-31T01:41:27.851Z,4.72
2022-12-31T01:43:58.684Z,4.50
2022-12-31T01:46:33.317Z,3.47
2022-12-31T01:49:04.374Z,4.95
2022-12-31T01:51:36.068Z,4.22
2022-12-31T01:54:08.349Z,4.25
2022-12-31T01:56:40.231Z,5.60
2022-12-31T01:59:11.595Z,5.85
2022-12-31T02:01:40.499Z,4.93
2022-12-31T02:04:13.084Z,6.13
2022-12-31T02:06:46.873Z,6.18
2022-12-31T02:09:15.373Z,4.28
2022-12-31T02:11:45.097Z,5.22
2022-12-31T02:14:17.324Z,5.18
2022-12-31T02:16:52.042Z,3.50
2022-12-31T02:19:46.449Z,4.00
2022-12-31T02:22:27.644Z,3.83
2022-12-31T02:25:23.287Z,5.38
2022-12-31T02:28:03.741Z,3.30
2022-12-31T02:30:34.459Z,4.13
2022-12-31T02:33:14.704Z,4.38
2022-12-31T02:35:50.162Z,3.55
2022-12-31T02:38:23.627Z,3.95
2022-12-31T02:40:54.007Z,4.07
2022-12-31T02:43:22.427Z,4.45
2022-12-31T02:46:02.368Z,5.07
2022-12-31T02:48:43.441Z,5.05
2022-12-31T02:51:34.279Z,6.85
2022-12-31T02:54:18.535Z,3.47
2022-12-31T02:56:54.819Z,3.95
2022-12-31T02:59:44.405Z,5.75
2022-12-31T03:02:19.501Z,8.55
2022-12-31T03:04:52.425Z,7.43
2022-12-31T03:07:23.540Z,8.18
2022-12-31T03:09:52.397Z,7.63
2022-12-31T03:12:42.095Z,7.18
2022-12-31T03:15:20.709Z,5.95
2022-12-31T03:17:57.685Z,5.13
2022-12-31T03:20:46.161Z,4.38
2022-12-31T03:23:17.271Z,3.42
2022-12-31T03:25:44.718Z,2.95
2022-12-31T03:28:16.192Z,3.47
2022-12-31T03:30:47.002Z,3.28
2022-12-31T03:33:17.277Z,3.78
2022-12-31T03:35:47.785Z,3.17
2022-12-31T03:38:16.957Z,2.83
2022-12-31T03:40:48.194Z,1.95
2022-12-31T03:43:16.655Z,3.33
2022-12-31T03:45:45.042Z,4.28
2022-12-31T03:48:14.438Z,2.80
2022-12-31T03:50:44.167Z,2.85
2022-12-31T03:53:12.639Z,3.28
2022-12-31T03:55:41.063Z,3.33
2022-12-31T03:58:09.439Z,4.63
2022-12-31T04:00:37.857Z,3.50
2022-12-31T04:03:06.473Z,4.05
2022-12-31T04:05:34.949Z,2.63
2022-12-31T04:08:04.957Z,3.33
2022-12-31T04:10:33.326Z,2.25
2022-12-31T04:13:04.437Z,2.13
2022-12-31T04:15:33.209Z,1.92
2022-12-31T04:18:01.562Z,4.90
2022-12-31T04:20:29.931Z,3.15
2022-12-31T04:22:58.271Z,2.22
2022-12-31T04:25:28.070Z,2.85
2022-12-31T04:27:56.444Z,3.22
2022-12-31T04:30:24.801Z,4.05
2022-12-31T04:32:53.212Z,2.88
2022-12-31T04:35:21.583Z,3.53
2022-12-31T04:37:49.969Z,3.40
2022-12-31T04:40:18.444Z,2.08
2022-12-31T04:42:48.165Z,3.92
2022-12-31T04:45:16.725Z,2.00
2022-12-31T04:47:45.073Z,4.43
2022-12-31T04:50:13.470Z,2.58
2022-12-31T04:52:43.030Z,4.68
2022-12-31T04:55:12.323Z,4.57
2022-12-31T04:57:42.131Z,2.28
2022-12-31T05:00:13.700Z,5.07
2022-12-31T05:02:42.215Z,3.92
2022-12-31T05:05:10.856Z,2.42
2022-12-31T05:07:39.322Z,2.20
2022-12-31T05:10:08.525Z,4.03
2022-12-31T05:12:36.942Z,5.90
2022-12-31T05:15:06.040Z,3.80
2022-12-31T05:17:35.803Z,4.03
2022-12-31T05:20:06.492Z,4.93
2022-12-31T05:22:34.839Z,5.03
2022-12-31T05:25:03.196Z,4.88
2022-12-31T05:27:32.073Z,4.93
2022-12-31T05:30:00.694Z,2.35
2022-12-31T05:32:29.123Z,3.30
2022-12-31T05:35:00.157Z,2.17
2022-12-31T05:37:29.391Z,2.85
2022-12-31T05:39:58.112Z,1.90
2022-12-31T05:42:27.068Z,4.75
2022-12-31T05:44:55.481Z,3.08
2022-12-31T05:47:24.416Z,3.72
2022-12-31T05:49:52.826Z,4.63
2022-12-31T05:52:22.635Z,4.63
2022-12-31T05:54:51.016Z,5.18
2022-12-31T05:57:19.442Z,3.28
2022-12-31T05:59:47.908Z,5.50
2022-12-31T06:02:16.333Z,3.55
2022-12-31T06:04:44.861Z,2.63
2022-12-31T06:07:13.274Z,5.18
2022-12-31T06:09:43.035Z,5.53
2022-12-31T06:12:11.415Z,3.78
2022-12-31T06:14:45.446Z,3.47
2022-12-31T06:17:14.278Z,4.90
2022-12-31T06:19:42.656Z,4.80
2022-12-31T06:22:11.029Z,4.18
2022-12-31T06:24:39.370Z,3.85
2022-12-31T06:27:09.093Z,3.80
2022-12-31T06:29:37.483Z,3.58
2022-12-31T06:32:06.656Z,4.28
2022-12-31T06:34:35.025Z,4.07
2022-12-31T06:37:03.444Z,6.10
2022-12-31T06:39:31.803Z,5.85
2022-12-31T06:42:00.160Z,6.20
2022-12-31T06:44:29.861Z,4.97
2022-12-31T06:46:58.206Z,6.05
2022-12-31T06:49:26.590Z,3.25
2022-12-31T06:51:54.945Z,6.18
2022-12-31T06:54:23.282Z,5.93
2022-12-31T06:56:52.234Z,3.13
2022-12-31T06:59:26.550Z,3.95
2022-12-31T07:05:06.863Z,5.38
2022-12-31T07:07:42.151Z,4.30
2022-12-31T07:10:28.966Z,5.43
2022-12-31T07:13:15.356Z,3.88
2022-12-31T07:16:01.500Z,4.35
2022-12-31T07:18:38.672Z,2.90
2022-12-31T07:21:12.757Z,3.45
2022-12-31T07:23:41.721Z,2.75
2022-12-31T07:26:20.940Z,2.55
2022-12-31T07:29:00.427Z,3.13
2022-12-31T07:31:40.670Z,2.85
2022-12-31T07:34:21.400Z,1.50
2022-12-31T07:36:59.536Z,1.88
2022-12-31T07:39:40.056Z,1.85
2022-12-31T07:42:15.366Z,2.35
2022-12-31T07:44:59.864Z,2.45
2022-12-31T07:47:29.925Z,2.40
2022-12-31T07:50:00.454Z,4.10
2022-12-31T07:52:29.371Z,4.57
2022-12-31T07:54:57.744Z,2.15
2022-12-31T07:57:35.542Z,4.45
2022-12-31T08:00:08.180Z,2.42
2022-12-31T08:02:58.111Z,6.18
2022-12-31T08:05:33.370Z,6.75
2022-12-31T08:08:12.344Z,4.57
2022-12-31T08:10:48.381Z,5.07
2022-12-31T08:13:18.410Z,5.35
2022-12-31T08:15:47.247Z,4.63
2022-12-31T08:18:16.066Z,3.50
2022-12-31T08:20:56.737Z,4.35
2022-12-31T08:23:33.731Z,5.45
2022-12-31T08:26:15.386Z,3.55
2022-12-31T08:28:58.779Z,3.35
2022-12-31T08:31:34.877Z,4.63
2022-12-31T08:34:14.229Z,3.50
2022-12-31T08:36:51.002Z,4.55
2022-12-31T08:39:30.261Z,3.72
2022-12-31T08:42:01.338Z,4.45
2022-12-31T08:44:37.415Z,3.50
2022-12-31T08:47:13.750Z,4.40
2022-12-31T08:49:42.484Z,5.22
2022-12-31T08:52:17.220Z,4.30
2022-12-31T08:54:46.176Z,5.82
2022-12-31T08:57:22.710Z,4.10
2022-12-31T09:00:02.863Z,5.97
2022-12-31T09:03:09.925Z,6.35
2022-12-31T09:05:54.055Z,4.43
2022-12-31T09:08:32.714Z,4.93
2022-12-31T09:11:08.705Z,4.30
2022-12-31T09:13:50.636Z,5.97
2022-12-31T09:16:23.454Z,5.55
2022-12-31T09:18:51.856Z,3.47
2022-12-31T09:21:20.607Z,4.30
2022-12-31T09:23:50.963Z,3.83
2022-12-31T09:26:36.380Z,4.30
2022-12-31T09:29:13.265Z,3.72
2022-12-31T09:31:50.768Z,4.00
2022-12-31T09:34:28.088Z,5.22
2022-12-31T09:37:00.457Z,4.93
2022-12-31T09:39:38.579Z,5.78
2022-12-31T09:42:32.971Z,4.57
2022-12-31T09:45:45.731Z,5.70
2022-12-31T09:48:59.352Z,4.55
2022-12-31T09:51:32.248Z,6.20
2022-12-31T09:54:37.758Z,7.15
2022-12-31T09:57:23.211Z,2.92
2022-12-31T09:59:58.912Z,5.72
2022-12-31T10:02:48.416Z,4.60
2022-12-31T10:05:40.238Z,7.25
2022-12-31T10:08:20.409Z,6.35
2022-12-31T10:10:55.841Z,5.32
2022-12-31T10:13:37.438Z,5.30
2022-12-31T10:16:35.036Z,5.72
2022-12-31T10:19:36.251Z,3.92
2022-12-31T10:22:20.135Z,3.53
2022-12-31T10:25:13.125Z,4.55
2022-12-31T10:27:52.746Z,5.18
2022-12-31T10:30:23.138Z,4.53
2022-12-31T10:33:13.202Z,9.23
2022-12-31T10:35:50.767Z,6.35
2022-12-31T10:38:28.228Z,3.58
2022-12-31T10:41:49.996Z,3.90
2022-12-31T10:44:56.901Z,9.95
2022-12-31T10:47:52.981Z,5.68
2022-12-31T10:50:49.421Z,2.58
2022-12-31T10:53:58.422Z,5.70
2022-12-31T10:56:57.548Z,3.85
2022-12-31T10:59:54.892Z,4.05
2022-12-31T11:02:48.619Z,3.88
2022-12-31T11:05:53.295Z,4.07
2022-12-31T11:08:51.018Z,3.58
2022-12-31T11:11:29.061Z,4.18
2022-12-31T11:14:39.039Z,10.45
2022-12-31T11:17:20.857Z,8.80
2022-12-31T11:20:04.406Z,8.05
2022-12-31T11:22:48.957Z,6.43
2022-12-31T11:25:30.157Z,5.53
2022-12-31T11:28:22.893Z,9.60
2022-12-31T11:31:09.762Z,5.15
2022-12-31T11:33:53.853Z,4.30
2022-12-31T11:36:34.250Z,4.35
2022-12-31T11:39:30.703Z,11.27
2022-12-31T11:42:05.923Z,12.00
2022-12-31T11:44:41.777Z,13.15
2022-12-31T11:47:26.727Z,6.35
2022-12-31T11:50:16.919Z,4.90
2022-12-31T11:52:55.623Z,6.60
2022-12-31T11:55:44.262Z,7.05
2022-12-31T11:58:16.424Z,7.18
2022-12-31T12:00:54.880Z,5.25
2022-12-31T12:03:24.660Z,9.98
2022-12-31T12:05:56.975Z,7.85
2022-12-31T12:08:26.924Z,9.52
2022-12-31T12:11:01.498Z,5.75
2022-12-31T12:13:29.914Z,6.95
2022-12-31T12:16:00.854Z,6.15
2022-12-31T12:18:34.699Z,8.05
2022-12-31T12:21:10.723Z,8.52
2022-12-31T12:23:39.669Z,6.90
2022-12-31T12:26:08.398Z,6.40
2022-12-31T12:28:46.072Z,7.00
2022-12-31T12:31:21.972Z,7.88
2022-12-31T12:33:52.506Z,7.57
2022-12-31T12:36:22.885Z,6.78
2022-12-31T12:39:02.897Z,8.23
2022-12-31T12:41:31.665Z,8.52
2022-12-31T12:44:05.220Z,9.77
2022-12-31T12:46:36.638Z,8.95
2022-12-31T12:49:05.199Z,6.32
2022-12-31T12:52:09.149Z,6.63
2022-12-31T12:54:51.662Z,3.72
2022-12-31T12:57:29.222Z,6.30
2022-12-31T13:00:07.636Z,3.97
2022-12-31T13:03:01.701Z,5.47
2022-12-31T13:05:41.193Z,6.07
2022-12-31T13:08:23.327Z,4.93
2022-12-31T13:11:15.430Z,4.55
2022-12-31T13:13:49.751Z,6.93
2022-12-31T13:16:24.808Z,6.63
2022-12-31T13:18:59.867Z,4.72
2022-12-31T13:21:36.779Z,4.88
2022-12-31T13:24:19.662Z,9.35
2022-12-31T13:26:54.037Z,5.10
2022-12-31T13:29:27.504Z,5.95
2022-12-31T13:31:58.204Z,5.65
2022-12-31T13:34:31.659Z,9.25
2022-12-31T13:37:04.549Z,5.00
2022-12-31T13:39:40.457Z,7.10
2022-12-31T13:42:14.249Z,5.88
2022-12-31T13:44:49.149Z,5.78
2022-12-31T13:47:25.423Z,3.45
2022-12-31T13:49:59.025Z,6.47
2022-12-31T13:52:35.639Z,5.50
2022-12-31T13:55:14.534Z,6.63
2022-12-31T13:57:47.072Z,3.90
2022-12-31T14:00:22.886Z,7.45
2022-12-31T14:03:02.546Z,7.53
2022-12-31T14:05:35.140Z,8.23
2022-12-31T14:08:06.257Z,5.57
2022-12-31T14:10:45.615Z,15.60
2022-12-31T14:13:43.561Z,11.93
2022-12-31T14:16:20.838Z,21.02
2022-12-31T14:18:59.058Z,13.70
2022-12-31T14:21:33.862Z,9.32
2022-12-31T14:24:13.520Z,11.68
2022-12-31T14:26:47.190Z,19.10
2022-12-31T14:29:30.414Z,17.90
2022-12-31T14:32:22.500Z,16.35
2022-12-31T14:34:59.618Z,18.15
2022-12-31T14:37:38.899Z,9.90
2022-12-31T14:40:20.129Z,12.77
2022-12-31T14:43:03.109Z,10.93
2022-12-31T14:45:50.635Z,11.48
2022-12-31T14:48:31.130Z,12.27
2022-12-31T14:51:02.103Z,6.97
2022-12-31T14:53:31.437Z,11.13
2022-12-31T14:56:02.838Z,11.57
2022-12-31T14:58:35.589Z,20.25
2022-12-31T15:01:08.873Z,12.82
2022-12-31T15:03:44.996Z,10.95
2022-12-31T15:06:49.423Z,9.05
2022-12-31T15:09:31.076Z,7.15
2022-12-31T15:12:23.138Z,9.05
2022-12-31T15:15:22.529Z,13.23
2022-12-31T15:18:03.605Z,7.72
2022-12-31T15:20:43.804Z,9.00
2022-12-31T15:23:23.067Z,8.65
2022-12-31T15:25:56.520Z,11.45
2022-12-31T15:28:32.677Z,14.00
2022-12-31T15:31:11.725Z,12.15
2022-12-31T15:33:56.837Z,11.70
2022-12-31T15:36:26.387Z,12.07
2022-12-31T15:39:07.520Z,9.65
2022-12-31T15:41:50.277Z,9.82
2022-12-31T15:44:29.809Z,14.38
2022-12-31T15:47:05.426Z,18.40
2022-12-31T15:49:41.535Z,21.98
2022-12-31T15:52:18.220Z,19.95
2022-12-31T15:54:49.209Z,13.02
2022-12-31T15:57:20.791Z,13.65
2022-12-31T15:59:49.215Z,12.38
2022-12-31T16:02:24.981Z,14.73
2022-12-31T16:04:55.532Z,14.75
2022-12-31T16:07:25.386Z,15.25
2022-12-31T16:09:56.391Z,13.40
2022-12-31T16:12:32.747Z,15.18
2022-12-31T16:15:03.308Z,12.57
2022-12-31T16:17:35.017Z,15.68
2022-12-31T16:20:22.556Z,14.65
2022-12-31T16:22:54.763Z,12.20
2022-12-31T16:25:31.959Z,11.52
2022-12-31T16:28:03.047Z,13.48
2022-12-31T16:30:33.314Z,13.27
2022-12-31T16:33:05.661Z,12.50
2022-12-31T16:35:36.359Z,11.27
2022-12-31T16:38:12.826Z,12.45
2022-12-31T16:40:42.482Z,10.55
2022-12-31T16:43:26.008Z,12.20
2022-12-31T16:45:57.502Z,9.40
2022-12-31T16:48:27.721Z,12.13
2022-12-31T16:50:57.824Z,12.52
2022-12-31T16:53:29.884Z,9.45
2022-12-31T16:56:03.167Z,11.65
2022-12-31T16:58:34.311Z,13.30
2022-12-31T17:01:14.729Z,11.07
2022-12-31T17:03:48.477Z,11.02
2022-12-31T17:06:18.925Z,12.93
2022-12-31T17:08:50.454Z,12.65
2022-12-31T17:11:23.566Z,12.30
2022-12-31T17:13:58.378Z,11.80
2022-12-31T17:16:27.561Z,13.57
2022-12-31T17:18:57.393Z,11.45
2022-12-31T17:21:30.342Z,14.65
2022-12-31T17:24:04.306Z,12.38
2022-12-31T17:26:35.834Z,14.32
2022-12-31T17:29:06.043Z,18.83
2022-12-31T17:31:37.182Z,11.57
2022-12-31T17:34:21.215Z,12.02
2022-12-31T17:37:04.274Z,15.90
2022-12-31T17:39:44.792Z,19.50
2022-12-31T17:42:14.751Z,15.05
2022-12-31T17:44:44.737Z,13.55
2022-12-31T17:47:14.910Z,28.02
2022-12-31T17:49:46.744Z,14.93
2022-12-31T17:52:17.102Z,15.70
2022-12-31T17:54:45.539Z,16.50
2022-12-31T17:57:26.801Z,14.75
2022-12-31T17:59:55.443Z,15.98
2022-12-31T18:02:24.118Z,15.07
2022-12-31T18:04:54.194Z,16.30
2022-12-31T18:07:22.563Z,16.83
2022-12-31T18:09:51.076Z,14.07
2022-12-31T18:12:20.103Z,18.15
2022-12-31T18:14:48.661Z,23.67
2022-12-31T18:17:17.299Z,16.27
2022-12-31T18:20:04.375Z,26.75
2022-12-31T18:22:35.626Z,20.20
2022-12-31T18:25:06.690Z,12.90
2022-12-31T18:27:35.146Z,12.98
2022-12-31T18:30:06.079Z,21.83
2022-12-31T18:32:35.622Z,17.92
2022-12-31T18:35:04.759Z,23.55
2022-12-31T18:37:35.600Z,14.65
2022-12-31T18:40:04.139Z,12.93
2022-12-31T18:42:33.276Z,11.73
2022-12-31T18:45:01.796Z,14.02
2022-12-31T18:47:35.805Z,21.75
2022-12-31T18:50:07.263Z,22.35
2022-12-31T18:52:37.041Z,14.27
2022-12-31T18:55:22.887Z,18.67
2022-12-31T18:57:51.267Z,22.92
2022-12-31T19:00:20.051Z,19.85
2022-12-31T19:02:48.754Z,14.95
2022-12-31T19:05:26.673Z,26.63
2022-12-31T19:07:57.458Z,17.15
2022-12-31T19:10:27.232Z,14.10
2022-12-31T19:12:55.748Z,14.73
2022-12-31T19:15:30.275Z,17.25
2022-12-31T19:17:58.631Z,14.20
2022-12-31T19:20:27.180Z,14.90
2022-12-31T19:22:57.804Z,16.23
2022-12-31T19:25:27.757Z,15.73
2022-12-31T19:27:56.339Z,20.75
2022-12-31T19:30:28.357Z,18.27
2022-12-31T19:32:56.986Z,16.67
2022-12-31T19:35:26.382Z,14.20
2022-12-31T19:37:56.544Z,13.13
2022-12-31T19:40:27.053Z,15.52
2022-12-31T19:42:56.127Z,17.48
2022-12-31T19:45:26.630Z,23.77
2022-12-31T19:47:57.092Z,36.08
2022-12-31T19:50:27.972Z,17.35
2022-12-31T19:52:59.479Z,22.05
2022-12-31T19:55:27.912Z,17.42
2022-12-31T19:57:56.542Z,13.50
2022-12-31T20:00:24.952Z,19.92
2022-12-31T20:02:53.607Z,16.92
2022-12-31T20:05:22.068Z,33.28
2022-12-31T20:07:50.513Z,57.75
2022-12-31T20:10:20.422Z,36.67
2022-12-31T20:12:48.856Z,33.65
2022-12-31T20:15:17.340Z,54.53
2022-12-31T20:17:45.848Z,18.85
2022-12-31T20:20:14.647Z,50.10
2022-12-31T20:22:43.075Z,17.00
2022-12-31T20:25:11.474Z,14.77
2022-12-31T20:27:41.196Z,35.40
2022-12-31T20:30:10.812Z,22.83
2022-12-31T20:32:39.819Z,31.08
2022-12-31T20:35:08.843Z,25.77
2022-12-31T20:37:37.191Z,17.23
2022-12-31T20:40:07.127Z,18.05
2022-12-31T20:42:36.655Z,17.10
2022-12-31T20:45:08.096Z,15.68
2022-12-31T20:47:36.527Z,15.65
2022-12-31T20:50:13.102Z,15.80
2022-12-31T20:52:42.986Z,19.80
2022-12-31T20:55:13.821Z,31.70
2022-12-31T20:57:42.184Z,17.30
2022-12-31T21:00:14.826Z,25.50
2022-12-31T21:02:45.026Z,28.35
2022-12-31T21:05:16.643Z,24.02
2022-12-31T21:07:45.258Z,25.20
2022-12-31T21:10:15.178Z,14.98
2022-12-31T21:12:45.447Z,15.10
2022-12-31T21:15:15.271Z,18.50
2022-12-31T21:17:43.931Z,19.25
2022-12-31T21:20:13.145Z,13.68
2022-12-31T21:22:41.495Z,16.77
2022-12-31T21:25:11.526Z,14.50
2022-12-31T21:27:39.866Z,19.40
2022-12-31T21:30:19.077Z,21.00
2022-12-31T21:32:49.724Z,16.95
2022-12-31T21:38:07.844Z,12.55
2022-12-31T21:40:36.253Z,14.43
2022-12-31T21:43:04.637Z,17.95
2022-12-31T21:45:33.054Z,19.88
2022-12-31T21:48:22.024Z,13.10
2022-12-31T21:50:51.972Z,16.30
2022-12-31T21:53:26.220Z,13.30
2022-12-31T21:56:09.704Z,24.13
2022-12-31T21:58:42.041Z,19.42
2022-12-31T22:01:34.479Z,32.53
2022-12-31T22:04:04.560Z,19.48
2022-12-31T22:06:36.779Z,18.25
2022-12-31T22:09:05.239Z,17.80
2022-12-31T22:11:33.571Z,21.80
2022-12-31T22:14:02.038Z,56.50
2022-12-31T22:16:30.509Z,14.52
2022-12-31T22:18:58.869Z,22.52
2022-12-31T22:21:28.736Z,16.35
2022-12-31T22:23:58.741Z,15.15
2022-12-31T22:26:29.901Z,14.40
2022-12-31T22:28:59.786Z,15.73
2022-12-31T22:31:30.871Z,27.23
2022-12-31T22:34:02.717Z,16.10
2022-12-31T22:36:32.603Z,17.08
2022-12-31T22:39:01.048Z,23.13
2022-12-31T22:41:29.893Z,16.80
2022-12-31T22:44:04.584Z,19.23
2022-12-31T22:46:33.742Z,21.92
2022-12-31T22:49:03.510Z,18.90
2022-12-31T22:51:55.848Z,18.63
2022-12-31T22:54:22.539Z,34.50
2022-12-31T22:56:50.988Z,28.42
2022-12-31T22:59:19.528Z,52.85
2022-12-31T23:01:48.120Z,127.60
2022-12-31T23:04:16.895Z,211.95
2022-12-31T23:06:46.696Z,126.43
2022-12-31T23:09:34.606Z,281.77
2022-12-31T23:12:04.295Z,141.70
2022-12-31T23:14:50.043Z,85.57
2022-12-31T23:17:39.868Z,91.68
2022-12-31T23:20:30.554Z,378.70
2022-12-31T23:23:12.696Z,66.75
2022-12-31T23:25:43.937Z,85.43
2022-12-31T23:28:15.009Z,106.45
2022-12-31T23:30:44.091Z,85.45
2022-12-31T23:33:16.546Z,103.40
2022-12-31T23:35:45.450Z,87.70
2022-12-31T23:38:16.652Z,73.07
2022-12-31T23:40:45.173Z,84.80
2022-12-31T23:43:20.902Z,80.97
2022-12-31T23:45:50.309Z,82.22
2022-12-31T23:48:18.903Z,82.07
2022-12-31T23:50:52.997Z,64.32
2022-12-31T23:53:24.746Z,50.10
2022-12-31T23:55:54.141Z,59.75
2022-12-31T23:58:23.315Z,49.10
